createdAt,value
2022-12-18T00:01:26.485Z,32.85
2022-12-18T00:03:56.000Z,31.27
2022-12-18T00:06:26.603Z,29.77
2022-12-18T00:08:55.417Z,32.92
2022-12-18T00:11:26.245Z,33.03
2022-12-18T00:13:56.166Z,31.30
2022-12-18T00:16:25.546Z,33.53
2022-12-18T00:18:56.054Z,30.85
2022-12-18T00:21:23.560Z,36.53
2022-12-18T00:26:24.029Z,31.80
2022-12-18T00:28:56.822Z,32.60
2022-12-18T00:31:25.632Z,29.58
2022-12-18T00:33:58.495Z,29.60
2022-12-18T00:36:32.927Z,32.00
2022-12-18T00:39:01.866Z,31.70
2022-12-18T00:41:47.734Z,27.42
2022-12-18T00:44:17.865Z,33.22
2022-12-18T00:46:47.439Z,31.08
2022-12-18T00:49:17.990Z,35.28
2022-12-18T00:51:45.523Z,33.05
2022-12-18T00:56:48.365Z,30.98
2022-12-18T00:59:18.709Z,29.07
2022-12-18T01:01:47.534Z,28.83
2022-12-18T01:04:15.549Z,33.20
2022-12-18T01:06:46.370Z,31.48
2022-12-18T01:09:14.023Z,33.63
2022-12-18T01:11:41.532Z,34.83
2022-12-18T01:16:38.478Z,28.98
2022-12-18T01:19:06.044Z,31.05
2022-12-18T01:21:34.502Z,31.88
2022-12-18T01:24:06.108Z,32.13
2022-12-18T01:26:34.738Z,32.35
2022-12-18T01:29:02.228Z,30.58
2022-12-18T01:31:33.315Z,33.17
2022-12-18T01:34:05.338Z,33.20
2022-12-18T01:36:35.438Z,30.77
2022-12-18T01:39:07.582Z,32.63
2022-12-18T01:41:54.549Z,33.88
2022-12-18T01:44:59.087Z,32.03
2022-12-18T01:47:36.572Z,29.25
2022-12-18T01:50:10.295Z,33.70
2022-12-18T01:52:39.567Z,30.92
2022-12-18T01:55:08.259Z,30.33
2022-12-18T01:57:36.182Z,32.72
2022-12-18T02:00:16.164Z,33.03
2022-12-18T02:02:46.552Z,30.30
2022-12-18T02:05:20.241Z,32.33
2022-12-18T02:08:06.256Z,34.22
2022-12-18T02:10:39.529Z,30.25
2022-12-18T02:13:23.093Z,32.83
2022-12-18T02:15:50.998Z,29.80
2022-12-18T02:21:00.784Z,31.35
2022-12-18T02:23:42.424Z,29.15
2022-12-18T02:26:25.546Z,31.70
2022-12-18T02:29:01.754Z,34.17
2022-12-18T02:31:38.111Z,33.22
2022-12-18T02:34:09.022Z,28.77
2022-12-18T02:36:41.748Z,30.05
2022-12-18T02:39:12.288Z,31.33
2022-12-18T02:41:46.028Z,30.38
2022-12-18T02:44:15.511Z,29.13
2022-12-18T02:46:51.300Z,30.95
2022-12-18T02:49:37.841Z,35.55
2022-12-18T02:52:43.002Z,28.95
2022-12-18T02:55:30.946Z,32.03
2022-12-18T02:58:24.179Z,30.20
2022-12-18T03:01:10.564Z,31.90
2022-12-18T03:03:53.189Z,32.35
2022-12-18T03:06:31.556Z,29.75
2022-12-18T03:09:05.580Z,35.38
2022-12-18T03:11:57.320Z,32.60
2022-12-18T03:14:27.040Z,32.13
2022-12-18T03:16:59.992Z,34.28
2022-12-18T03:19:30.658Z,29.40
2022-12-18T03:22:03.346Z,30.40
2022-12-18T03:24:40.669Z,32.17
2022-12-18T03:27:16.756Z,31.60
2022-12-18T03:29:53.127Z,31.27
2022-12-18T03:32:30.609Z,32.15
2022-12-18T03:35:04.275Z,31.50
2022-12-18T03:37:34.956Z,32.60
2022-12-18T03:40:05.100Z,32.20
2022-12-18T03:42:46.805Z,32.75
2022-12-18T03:45:14.509Z,30.90
2022-12-18T03:47:44.834Z,30.90
2022-12-18T03:50:35.430Z,31.98
2022-12-18T03:53:30.318Z,30.35
2022-12-18T03:56:01.875Z,28.85
2022-12-18T03:58:36.791Z,32.88
2022-12-18T04:01:29.624Z,31.27
2022-12-18T04:04:01.329Z,29.63
2022-12-18T04:06:32.218Z,32.85
2022-12-18T04:09:00.239Z,31.98
2022-12-18T04:11:27.990Z,27.88
2022-12-18T04:13:59.334Z,28.05
2022-12-18T04:16:27.885Z,31.52
2022-12-18T04:18:58.444Z,35.25
2022-12-18T04:21:27.700Z,31.77
2022-12-18T04:26:24.356Z,31.23
2022-12-18T04:29:14.863Z,30.38
2022-12-18T04:31:42.995Z,27.88
2022-12-18T04:34:10.770Z,31.25
2022-12-18T04:36:44.052Z,33.45
2022-12-18T04:39:11.533Z,31.13
2022-12-18T04:41:39.125Z,31.23
2022-12-18T04:44:06.825Z,27.88
2022-12-18T04:49:01.537Z,32.58
2022-12-18T04:51:29.052Z,27.98
2022-12-18T04:56:24.130Z,33.03
2022-12-18T04:58:51.645Z,30.15
2022-12-18T05:03:47.060Z,30.67
2022-12-18T05:06:14.757Z,27.95
2022-12-18T05:08:42.162Z,27.95
2022-12-18T05:11:16.708Z,32.58
2022-12-18T05:13:45.591Z,29.27
2022-12-18T05:16:13.736Z,29.70
2022-12-18T05:18:41.869Z,27.75
2022-12-18T05:21:09.590Z,31.17
2022-12-18T05:23:37.878Z,29.63
2022-12-18T05:26:07.444Z,29.17
2022-12-18T05:28:36.631Z,27.42
2022-12-18T05:31:05.532Z,30.90
2022-12-18T05:33:35.293Z,29.08
2022-12-18T05:36:05.227Z,28.60
2022-12-18T05:38:34.639Z,31.05
2022-12-18T05:41:02.306Z,26.77
2022-12-18T05:43:30.948Z,30.77
2022-12-18T05:45:58.659Z,28.60
2022-12-18T05:48:26.176Z,31.38
2022-12-18T05:55:49.164Z,29.33
2022-12-18T05:58:17.277Z,29.27
2022-12-18T06:00:46.814Z,30.98
2022-12-18T06:03:14.783Z,30.02
2022-12-18T06:05:45.071Z,28.35
2022-12-18T06:08:14.193Z,27.98
2022-12-18T06:10:42.776Z,30.50
2022-12-18T06:13:10.427Z,28.15
2022-12-18T06:18:05.698Z,31.70
2022-12-18T06:23:01.835Z,26.10
2022-12-18T06:25:29.245Z,27.25
2022-12-18T06:30:23.909Z,28.00
2022-12-18T06:35:25.118Z,27.52
2022-12-18T06:37:52.650Z,25.63
2022-12-18T06:40:20.289Z,30.45
2022-12-18T06:42:47.939Z,28.92
2022-12-18T06:45:15.750Z,26.00
2022-12-18T06:47:43.260Z,25.83
2022-12-18T06:50:11.292Z,30.33
2022-12-18T06:52:40.076Z,29.13
2022-12-18T06:55:09.318Z,28.40
2022-12-18T06:57:37.274Z,27.00
2022-12-18T07:00:06.910Z,31.25
2022-12-18T07:02:34.721Z,28.42
2022-12-18T07:05:08.927Z,30.95
2022-12-18T07:07:36.730Z,27.05
2022-12-18T07:10:04.501Z,29.27
2022-12-18T07:12:32.043Z,28.77
2022-12-18T07:14:59.483Z,30.45
2022-12-18T07:19:54.363Z,31.85
2022-12-18T07:27:16.387Z,31.83
2022-12-18T07:32:11.521Z,29.88
2022-12-18T07:34:41.385Z,30.10
2022-12-18T07:39:36.001Z,28.20
2022-12-18T07:42:21.951Z,28.83
2022-12-18T07:47:17.947Z,29.52
2022-12-18T07:52:13.433Z,29.95
2022-12-18T07:54:44.077Z,29.65
2022-12-18T07:57:27.376Z,31.55
2022-12-18T07:59:59.674Z,30.67
2022-12-18T08:02:27.190Z,27.92
2022-12-18T08:04:55.117Z,30.58
2022-12-18T08:07:22.645Z,29.13
2022-12-18T08:09:50.138Z,32.25
2022-12-18T08:12:17.738Z,30.48
2022-12-18T08:14:45.202Z,29.98
2022-12-18T08:17:12.588Z,30.60
2022-12-18T08:19:40.597Z,31.55
2022-12-18T08:22:07.997Z,33.47
2022-12-18T08:29:50.822Z,27.65
2022-12-18T08:32:18.262Z,30.75
2022-12-18T08:37:12.937Z,34.05
2022-12-18T08:42:26.118Z,30.83
2022-12-18T08:44:53.741Z,31.48
2022-12-18T08:49:48.689Z,32.47
2022-12-18T08:57:10.562Z,33.67
2022-12-18T09:02:05.476Z,32.70
2022-12-18T09:04:33.084Z,34.10
2022-12-18T09:07:00.615Z,31.38
2022-12-18T09:14:22.660Z,33.85
2022-12-18T09:16:50.105Z,33.33
2022-12-18T09:19:17.808Z,33.70
2022-12-18T09:21:48.328Z,34.95
2022-12-18T09:24:17.519Z,33.15
2022-12-18T09:26:47.178Z,36.30
2022-12-18T09:29:16.783Z,35.33
2022-12-18T09:31:47.129Z,33.90
2022-12-18T09:34:14.717Z,33.53
2022-12-18T09:36:42.375Z,38.55
2022-12-18T09:39:11.287Z,31.85
2022-12-18T09:41:51.139Z,34.58
2022-12-18T09:44:32.184Z,30.45
2022-12-18T09:47:08.758Z,35.63
2022-12-18T09:49:43.066Z,36.17
2022-12-18T09:52:35.357Z,34.00
2022-12-18T09:55:12.477Z,30.50
2022-12-18T09:57:48.896Z,33.70
2022-12-18T10:00:20.828Z,33.53
2022-12-18T10:02:49.241Z,34.72
2022-12-18T10:05:45.211Z,35.05
2022-12-18T10:08:31.708Z,33.85
2022-12-18T10:11:15.721Z,41.55
2022-12-18T10:14:06.181Z,37.95
2022-12-18T10:17:30.498Z,40.38
2022-12-18T10:20:03.274Z,35.65
2022-12-18T10:23:02.497Z,36.22
2022-12-18T10:25:32.514Z,38.88
2022-12-18T10:28:09.864Z,41.40
2022-12-18T10:30:40.281Z,39.10
2022-12-18T10:33:22.633Z,39.28
2022-12-18T10:35:53.721Z,39.40
2022-12-18T10:38:24.810Z,40.00
2022-12-18T10:41:02.444Z,40.22
2022-12-18T10:43:38.565Z,41.75
2022-12-18T10:46:09.115Z,38.60
2022-12-18T10:48:48.593Z,39.97
2022-12-18T10:51:31.726Z,41.15
2022-12-18T10:54:22.170Z,38.80
2022-12-18T10:56:49.985Z,37.67
2022-12-18T10:59:19.380Z,40.85
2022-12-18T11:01:52.783Z,36.95
2022-12-18T11:04:29.562Z,36.40
2022-12-18T11:07:03.293Z,37.72
2022-12-18T11:09:39.517Z,35.42
2022-12-18T11:12:19.002Z,36.10
2022-12-18T11:14:54.722Z,32.83
2022-12-18T11:17:27.134Z,33.58
2022-12-18T11:19:59.090Z,36.35
2022-12-18T11:22:32.052Z,34.55
2022-12-18T11:27:59.154Z,30.08
2022-12-18T11:30:31.081Z,35.05
2022-12-18T11:33:10.978Z,36.40
2022-12-18T11:35:50.968Z,37.42
2022-12-18T11:38:26.522Z,34.72
2022-12-18T11:41:07.211Z,36.65
2022-12-18T11:43:53.694Z,32.65
2022-12-18T11:46:32.309Z,33.17
2022-12-18T11:49:08.784Z,32.50
2022-12-18T11:51:44.570Z,30.02
2022-12-18T11:54:16.605Z,33.47
2022-12-18T11:57:18.242Z,30.45
2022-12-18T12:00:07.011Z,29.48
2022-12-18T12:03:05.225Z,32.63
2022-12-18T12:05:54.494Z,29.92
2022-12-18T12:09:01.556Z,28.85
2022-12-18T12:12:07.664Z,31.33
2022-12-18T12:15:03.185Z,29.55
2022-12-18T12:17:49.456Z,30.77
2022-12-18T12:20:26.864Z,30.92
2022-12-18T12:23:01.316Z,32.65
2022-12-18T12:25:28.839Z,29.90
2022-12-18T12:31:21.426Z,30.70
2022-12-18T12:34:01.109Z,29.45
2022-12-18T12:36:47.207Z,31.45
2022-12-18T12:39:21.823Z,31.97
2022-12-18T12:42:08.148Z,30.83
2022-12-18T12:44:54.208Z,29.73
2022-12-18T12:47:37.663Z,34.13
2022-12-18T12:50:13.365Z,33.08
2022-12-18T12:52:45.573Z,30.15
2022-12-18T12:55:28.721Z,31.88
2022-12-18T12:58:03.343Z,29.20
2022-12-18T13:00:41.237Z,30.13
2022-12-18T13:03:12.441Z,35.33
2022-12-18T13:05:45.393Z,32.70
2022-12-18T13:08:28.617Z,33.80
2022-12-18T13:11:19.884Z,33.55
2022-12-18T13:13:56.217Z,32.08
2022-12-18T13:16:26.151Z,39.90
2022-12-18T13:18:57.924Z,29.77
2022-12-18T13:21:30.231Z,32.33
2022-12-18T13:24:21.256Z,32.95
2022-12-18T13:26:49.578Z,29.10
2022-12-18T13:29:46.399Z,33.92
2022-12-18T13:32:26.407Z,36.10
2022-12-18T13:35:22.040Z,35.42
2022-12-18T13:37:54.673Z,31.80
2022-12-18T13:40:41.212Z,31.98
2022-12-18T13:43:20.834Z,34.78
2022-12-18T13:46:22.337Z,34.78
2022-12-18T13:48:57.889Z,34.65
2022-12-18T13:51:27.118Z,34.85
2022-12-18T13:53:59.449Z,34.20
2022-12-18T13:56:33.198Z,35.42
2022-12-18T13:59:24.879Z,69.70
2022-12-18T14:01:58.812Z,41.58
2022-12-18T14:04:30.975Z,36.10
2022-12-18T14:07:13.930Z,36.67
2022-12-18T14:09:47.183Z,33.53
2022-12-18T14:12:45.288Z,36.10
2022-12-18T14:15:43.681Z,33.58
2022-12-18T14:18:25.576Z,32.40
2022-12-18T14:20:59.428Z,34.53
2022-12-18T14:23:40.740Z,29.85
2022-12-18T14:26:29.065Z,30.58
2022-12-18T14:28:58.171Z,30.60
2022-12-18T14:31:27.842Z,35.67
2022-12-18T14:33:55.396Z,33.63
2022-12-18T14:38:59.633Z,28.85
2022-12-18T14:41:28.939Z,31.05
2022-12-18T14:44:05.999Z,34.00
2022-12-18T14:46:33.877Z,29.80
2022-12-18T14:49:04.606Z,33.33
2022-12-18T14:51:34.728Z,29.08
2022-12-18T14:54:05.423Z,31.50
2022-12-18T14:56:35.060Z,31.92
2022-12-18T14:59:05.920Z,32.03
2022-12-18T15:01:38.175Z,33.08
2022-12-18T15:04:24.169Z,33.72
2022-12-18T15:07:04.861Z,31.50
2022-12-18T15:09:32.615Z,29.92
2022-12-18T15:12:01.859Z,26.88
2022-12-18T15:14:35.940Z,32.30
2022-12-18T15:17:08.199Z,32.08
2022-12-18T15:19:43.821Z,29.10
2022-12-18T15:22:24.495Z,33.95
2022-12-18T15:24:52.916Z,27.65
2022-12-18T15:27:23.550Z,31.77
2022-12-18T15:30:25.116Z,30.33
2022-12-18T15:32:54.161Z,27.15
2022-12-18T15:35:26.267Z,29.10
2022-12-18T15:37:53.865Z,27.00
2022-12-18T15:43:14.702Z,26.33
2022-12-18T15:45:42.215Z,26.73
2022-12-18T15:58:29.142Z,23.23
2022-12-18T16:00:59.723Z,25.27
2022-12-18T16:03:27.215Z,25.35
2022-12-18T16:08:23.838Z,24.65
2022-12-18T16:13:20.671Z,24.83
2022-12-18T16:15:48.400Z,24.25
2022-12-18T16:18:16.105Z,21.67
2022-12-18T16:20:43.689Z,25.88
2022-12-18T16:23:11.236Z,20.05
2022-12-18T16:28:06.298Z,22.63
2022-12-18T16:30:38.484Z,22.75
2022-12-18T16:33:07.698Z,24.85
2022-12-18T16:35:38.090Z,20.25
2022-12-18T16:38:05.828Z,21.35
2022-12-18T16:40:34.063Z,22.27
2022-12-18T16:43:01.557Z,20.45
2022-12-18T16:48:01.612Z,19.25
2022-12-18T16:50:29.069Z,22.90
2022-12-18T16:55:23.768Z,19.13
2022-12-18T17:05:14.858Z,19.98
2022-12-18T17:07:42.305Z,16.33
2022-12-18T17:10:10.319Z,19.67
2022-12-18T17:12:37.777Z,20.05
2022-12-18T17:15:05.633Z,17.23
2022-12-18T17:17:33.125Z,19.95
2022-12-18T17:20:00.913Z,17.40
2022-12-18T17:27:23.039Z,21.20
2022-12-18T17:29:50.454Z,16.27
2022-12-18T17:34:45.922Z,17.02
2022-12-18T17:37:13.833Z,16.33
2022-12-18T17:39:42.090Z,18.40
2022-12-18T17:42:15.271Z,16.52
2022-12-18T17:44:43.786Z,16.20
2022-12-18T17:47:13.153Z,16.73
2022-12-18T17:49:40.892Z,18.27
2022-12-18T17:52:08.539Z,18.33
2022-12-18T17:54:39.648Z,15.57
2022-12-18T17:57:07.506Z,13.98
2022-12-18T17:59:35.127Z,12.43
2022-12-18T18:02:03.008Z,16.10
2022-12-18T18:04:30.796Z,15.10
2022-12-18T18:06:58.359Z,14.98
2022-12-18T18:12:11.471Z,16.45
2022-12-18T18:14:39.228Z,14.57
2022-12-18T18:17:06.732Z,13.65
2022-12-18T18:22:03.015Z,16.48
2022-12-18T18:24:31.275Z,19.33
2022-12-18T18:27:01.774Z,16.02
2022-12-18T18:29:32.944Z,15.38
2022-12-18T18:32:01.101Z,15.50
2022-12-18T18:34:31.008Z,16.83
2022-12-18T18:36:59.233Z,14.63
2022-12-18T18:39:27.025Z,15.00
2022-12-18T18:41:54.615Z,15.95
2022-12-18T18:44:22.839Z,20.05
2022-12-18T18:46:57.858Z,13.15
2022-12-18T18:49:27.905Z,18.15
2022-12-18T18:51:57.461Z,12.13
2022-12-18T18:54:25.900Z,18.33
2022-12-18T18:57:19.290Z,16.13
2022-12-18T18:59:42.070Z,16.73
2022-12-18T19:02:13.027Z,19.05
2022-12-18T19:04:44.754Z,14.82
2022-12-18T19:07:28.119Z,15.48
2022-12-18T19:10:03.855Z,13.60
2022-12-18T19:12:52.605Z,15.32
2022-12-18T19:15:21.750Z,17.60
2022-12-18T19:17:49.315Z,16.42
2022-12-18T19:20:16.905Z,23.30
2022-12-18T19:22:55.073Z,19.65
2022-12-18T19:25:40.043Z,26.60
2022-12-18T19:28:13.245Z,17.13
2022-12-18T19:30:52.452Z,14.70
2022-12-18T19:33:42.425Z,16.20
2022-12-18T19:36:22.429Z,16.65
2022-12-18T19:38:51.982Z,16.92
2022-12-18T19:41:20.780Z,14.40
2022-12-18T19:43:49.325Z,15.32
2022-12-18T19:46:19.401Z,15.85
2022-12-18T19:48:47.939Z,17.42
2022-12-18T19:51:19.215Z,19.27
2022-12-18T19:53:47.928Z,15.90
2022-12-18T19:56:18.482Z,19.65
2022-12-18T19:58:46.140Z,14.73
2022-12-18T20:01:15.896Z,15.68
2022-12-18T20:03:51.407Z,24.45
2022-12-18T20:06:29.041Z,16.92
2022-12-18T20:09:00.532Z,11.57
2022-12-18T20:11:30.158Z,9.32
2022-12-18T20:13:58.647Z,11.90
2022-12-18T20:16:26.251Z,13.27
2022-12-18T20:18:55.570Z,12.93
2022-12-18T20:21:24.144Z,13.40
2022-12-18T20:23:51.828Z,12.13
2022-12-18T20:26:19.609Z,16.65
2022-12-18T20:28:47.006Z,14.50
2022-12-18T20:31:14.528Z,15.13
2022-12-18T20:36:16.385Z,14.18
2022-12-18T20:38:48.838Z,14.55
2022-12-18T20:41:19.948Z,15.43
2022-12-18T20:43:49.565Z,15.80
2022-12-18T20:46:17.588Z,13.30
2022-12-18T20:48:45.295Z,12.43
2022-12-18T20:51:15.738Z,9.23
2022-12-18T20:53:43.834Z,20.58
2022-12-18T20:56:21.541Z,15.07
2022-12-18T20:58:50.486Z,11.02
2022-12-18T21:01:23.768Z,12.18
2022-12-18T21:03:52.395Z,9.10
2022-12-18T21:06:22.570Z,12.27
2022-12-18T21:08:50.791Z,12.07
2022-12-18T21:11:39.738Z,13.75
2022-12-18T21:14:14.963Z,10.63
2022-12-18T21:16:46.463Z,11.02
2022-12-18T21:19:19.859Z,11.93
2022-12-18T21:21:47.519Z,12.23
2022-12-18T21:24:15.150Z,7.93
2022-12-18T21:26:45.852Z,9.52
2022-12-18T21:29:16.772Z,11.63
2022-12-18T21:31:46.159Z,11.95
2022-12-18T21:34:18.407Z,11.18
2022-12-18T21:36:46.551Z,10.70
2022-12-18T21:39:15.159Z,11.55
2022-12-18T21:42:01.279Z,11.35
2022-12-18T21:44:29.012Z,13.90
2022-12-18T21:47:03.560Z,9.35
2022-12-18T21:49:36.996Z,9.02
2022-12-18T21:54:31.685Z,10.13
2022-12-18T21:59:34.981Z,10.60
2022-12-18T22:02:05.468Z,10.07
2022-12-18T22:04:33.087Z,13.73
2022-12-18T22:07:01.243Z,14.02
2022-12-18T22:09:28.820Z,12.68
2022-12-18T22:11:56.319Z,9.50
2022-12-18T22:16:52.561Z,9.90
2022-12-18T22:19:20.988Z,11.73
2022-12-18T22:21:49.674Z,7.50
2022-12-18T22:24:19.683Z,14.02
2022-12-18T22:26:48.372Z,13.82
2022-12-18T22:29:39.703Z,10.45
2022-12-18T22:32:10.591Z,8.25
2022-12-18T22:34:39.746Z,12.77
2022-12-18T22:37:07.268Z,13.95
2022-12-18T22:39:34.886Z,11.13
2022-12-18T22:42:02.765Z,7.10
2022-12-18T22:47:07.001Z,8.20
2022-12-18T22:49:35.934Z,8.93
2022-12-18T22:52:04.976Z,12.32
2022-12-18T22:54:33.549Z,8.30
2022-12-18T22:57:01.096Z,9.25
2022-12-18T22:59:28.525Z,12.27
2022-12-18T23:04:33.435Z,7.85
2022-12-18T23:07:05.852Z,9.48
2022-12-18T23:09:33.661Z,8.43
2022-12-18T23:12:01.882Z,16.30
2022-12-18T23:14:30.003Z,10.95
2022-12-18T23:16:57.953Z,9.90
2022-12-18T23:19:25.670Z,14.32
2022-12-18T23:21:54.517Z,10.32
2022-12-18T23:24:26.374Z,13.32
2022-12-18T23:26:54.070Z,16.67
2022-12-18T23:29:21.896Z,17.25
2022-12-18T23:31:49.335Z,17.10
2022-12-18T23:34:18.021Z,15.85
2022-12-18T23:36:46.956Z,15.90
2022-12-18T23:39:28.862Z,12.13
2022-12-18T23:41:58.911Z,14.60
2022-12-18T23:44:26.489Z,15.20
2022-12-18T23:46:54.042Z,14.43
2022-12-18T23:49:21.567Z,17.30
2022-12-18T23:51:49.481Z,12.02
2022-12-18T23:54:17.248Z,10.75
2022-12-18T23:56:49.847Z,11.98
